sensor_id;sensor_type;location;lat;lon;timestamp;temperature;humidity
23721;DHT22;42950;52.134;5.578;2023-03-01T00:00:39;0.30;99.90
23721;DHT22;42950;52.134;5.578;2023-03-01T00:03:04;0.20;99.90
23721;DHT22;42950;52.134;5.578;2023-03-01T00:05:30;0.30;99.90
23721;DHT22;42950;52.134;5.578;2023-03-01T00:07:56;0.20;99.90
23721;DHT22;42950;52.134;5.578;2023-03-01T00:10:21;0.30;99.90
23721;DHT22;42950;52.134;5.578;2023-03-01T00:12:47;0.20;99.90
23721;DHT22;42950;52.134;5.578;2023-03-01T00:15:12;0.30;99.90
23721;DHT22;42950;52.134;5.578;2023-03-01T00:17:38;0.30;99.90
23721;DHT22;42950;52.134;5.578;2023-03-01T00:20:04;0.20;99.90
23721;DHT22;42950;52.134;5.578;2023-03-01T00:22:33;0.30;99.90
23721;DHT22;42950;52.134;5.578;2023-03-01T00:24:59;0.30;99.90
23721;DHT22;42950;52.134;5.578;2023-03-01T00:27:24;0.30;99.90
23721;DHT22;42950;52.134;5.578;2023-03-01T00:29:50;0.20;99.90
23721;DHT22;42950;52.134;5.578;2023-03-01T00:32:15;0.20;99.90
23721;DHT22;42950;52.134;5.578;2023-03-01T00:34:41;0.10;99.90
23721;DHT22;42950;52.134;5.578;2023-03-01T00:37:06;0.10;99.90
23721;DHT22;42950;52.134;5.578;2023-03-01T00:39:32;0.00;99.90
23721;DHT22;42950;52.134;5.578;2023-03-01T00:41:58;0.00;99.90
23721;DHT22;42950;52.134;5.578;2023-03-01T00:44:24;0.00;99.90
23721;DHT22;42950;52.134;5.578;2023-03-01T00:46:49;0.10;99.90
23721;DHT22;42950;52.134;5.578;2023-03-01T00:49:15;0.10;99.90
23721;DHT22;42950;52.134;5.578;2023-03-01T00:51:40;0.10;99.90
23721;DHT22;42950;52.134;5.578;2023-03-01T00:54:09;0.10;99.90
23721;DHT22;42950;52.134;5.578;2023-03-01T00:56:35;0.00;99.90
23721;DHT22;42950;52.134;5.578;2023-03-01T00:59:01;-0.10;99.90
23721;DHT22;42950;52.134;5.578;2023-03-01T01:01:29;-0.10;99.90
23721;DHT22;42950;52.134;5.578;2023-03-01T01:06:27;0.00;99.90
23721;DHT22;42950;52.134;5.578;2023-03-01T01:08:55;0.00;99.90
23721;DHT22;42950;52.134;5.578;2023-03-01T01:11:22;-0.10;99.90
23721;DHT22;42950;52.134;5.578;2023-03-01T01:13:48;-0.10;99.90
23721;DHT22;42950;52.134;5.578;2023-03-01T01:16:16;-0.10;99.90
23721;DHT22;42950;52.134;5.578;2023-03-01T01:18:42;-0.20;99.90
23721;DHT22;42950;52.134;5.578;2023-03-01T01:21:11;-0.20;99.90
23721;DHT22;42950;52.134;5.578;2023-03-01T01:23:38;-0.20;99.90
23721;DHT22;42950;52.134;5.578;2023-03-01T01:26:09;-0.20;99.90
23721;DHT22;42950;52.134;5.578;2023-03-01T01:28:35;-0.30;99.90
23721;DHT22;42950;52.134;5.578;2023-03-01T01:31:01;-0.30;99.90
23721;DHT22;42950;52.134;5.578;2023-03-01T01:33:27;-0.40;99.90
23721;DHT22;42950;52.134;5.578;2023-03-01T01:35:52;-0.40;99.90
23721;DHT22;42950;52.134;5.578;2023-03-01T01:38:19;-0.40;99.90
23721;DHT22;42950;52.134;5.578;2023-03-01T01:40:45;-0.50;99.90
23721;DHT22;42950;52.134;5.578;2023-03-01T01:45:45;-0.40;99.90
23721;DHT22;42950;52.134;5.578;2023-03-01T01:48:13;-0.40;99.90
23721;DHT22;42950;52.134;5.578;2023-03-01T01:50:41;-0.40;99.90
23721;DHT22;42950;52.134;5.578;2023-03-01T01:53:15;-0.30;99.90
23721;DHT22;42950;52.134;5.578;2023-03-01T01:55:44;-0.30;99.90
23721;DHT22;42950;52.134;5.578;2023-03-01T01:58:14;-0.30;99.90
23721;DHT22;42950;52.134;5.578;2023-03-01T02:00:40;-0.30;99.90
23721;DHT22;42950;52.134;5.578;2023-03-01T02:03:15;-0.30;99.90
23721;DHT22;42950;52.134;5.578;2023-03-01T02:08:39;-0.30;99.90
23721;DHT22;42950;52.134;5.578;2023-03-01T02:11:07;-0.50;99.90
23721;DHT22;42950;52.134;5.578;2023-03-01T02:13:33;-0.50;99.90
23721;DHT22;42950;52.134;5.578;2023-03-01T02:16:03;-0.50;99.90
23721;DHT22;42950;52.134;5.578;2023-03-01T02:18:29;-0.50;99.90
23721;DHT22;42950;52.134;5.578;2023-03-01T02:23:31;-0.50;99.90
23721;DHT22;42950;52.134;5.578;2023-03-01T02:26:18;-0.50;99.90
23721;DHT22;42950;52.134;5.578;2023-03-01T02:28:46;-0.50;99.90
23721;DHT22;42950;52.134;5.578;2023-03-01T02:31:17;-0.60;99.90
23721;DHT22;42950;52.134;5.578;2023-03-01T02:34:02;-0.60;99.90
23721;DHT22;42950;52.134;5.578;2023-03-01T02:36:34;-0.60;99.90
23721;DHT22;42950;52.134;5.578;2023-03-01T02:39:02;-0.60;99.90
23721;DHT22;42950;52.134;5.578;2023-03-01T02:41:30;-0.60;99.90
23721;DHT22;42950;52.134;5.578;2023-03-01T02:43:56;-0.70;99.90
23721;DHT22;42950;52.134;5.578;2023-03-01T02:46:24;-0.70;99.90
23721;DHT22;42950;52.134;5.578;2023-03-01T02:48:52;-0.70;99.90
23721;DHT22;42950;52.134;5.578;2023-03-01T02:52:26;-0.70;99.90
23721;DHT22;42950;52.134;5.578;2023-03-01T02:54:29;-0.80;99.90
23721;DHT22;42950;52.134;5.578;2023-03-01T02:56:56;-0.80;99.90
23721;DHT22;42950;52.134;5.578;2023-03-01T02:59:27;-0.80;99.90
23721;DHT22;42950;52.134;5.578;2023-03-01T03:01:54;-0.80;99.90
23721;DHT22;42950;52.134;5.578;2023-03-01T03:04:20;-0.90;99.90
23721;DHT22;42950;52.134;5.578;2023-03-01T03:06:48;-0.90;99.90
23721;DHT22;42950;52.134;5.578;2023-03-01T03:09:15;-0.90;99.90
23721;DHT22;42950;52.134;5.578;2023-03-01T03:11:41;-0.90;99.90
23721;DHT22;42950;52.134;5.578;2023-03-01T03:14:09;-0.90;99.90
23721;DHT22;42950;52.134;5.578;2023-03-01T03:16:49;-0.90;99.90
23721;DHT22;42950;52.134;5.578;2023-03-01T03:19:16;-0.90;99.90
23721;DHT22;42950;52.134;5.578;2023-03-01T03:21:42;-1.00;99.90
23721;DHT22;42950;52.134;5.578;2023-03-01T03:24:08;-1.00;99.90
23721;DHT22;42950;52.134;5.578;2023-03-01T03:26:34;-1.00;99.90
23721;DHT22;42950;52.134;5.578;2023-03-01T03:28:59;-1.00;99.90
23721;DHT22;42950;52.134;5.578;2023-03-01T03:31:26;-1.00;99.90
23721;DHT22;42950;52.134;5.578;2023-03-01T03:33:52;-1.00;99.90
23721;DHT22;42950;52.134;5.578;2023-03-01T03:36:23;-1.10;99.90
23721;DHT22;42950;52.134;5.578;2023-03-01T03:38:49;-1.10;99.90
23721;DHT22;42950;52.134;5.578;2023-03-01T03:41:15;-1.10;99.90
23721;DHT22;42950;52.134;5.578;2023-03-01T03:43:41;-1.10;99.90
23721;DHT22;42950;52.134;5.578;2023-03-01T03:46:08;-1.10;99.90
23721;DHT22;42950;52.134;5.578;2023-03-01T03:48:39;-1.10;99.90
23721;DHT22;42950;52.134;5.578;2023-03-01T03:51:05;-1.10;99.90
23721;DHT22;42950;52.134;5.578;2023-03-01T03:53:32;-1.20;99.90
23721;DHT22;42950;52.134;5.578;2023-03-01T03:55:58;-1.20;99.90
23721;DHT22;42950;52.134;5.578;2023-03-01T03:58:24;-1.20;99.90
23721;DHT22;42950;52.134;5.578;2023-03-01T04:00:52;-1.20;99.90
23721;DHT22;42950;52.134;5.578;2023-03-01T04:03:19;-1.20;99.90
23721;DHT22;42950;52.134;5.578;2023-03-01T04:05:46;-1.20;99.90
23721;DHT22;42950;52.134;5.578;2023-03-01T04:08:12;-1.20;99.90
23721;DHT22;42950;52.134;5.578;2023-03-01T04:10:40;-1.20;99.90
23721;DHT22;42950;52.134;5.578;2023-03-01T04:13:08;-1.20;99.90
23721;DHT22;42950;52.134;5.578;2023-03-01T04:15:35;-1.30;99.90
23721;DHT22;42950;52.134;5.578;2023-03-01T04:18:01;-1.30;99.90
23721;DHT22;42950;52.134;5.578;2023-03-01T04:20:29;-1.30;99.90
23721;DHT22;42950;52.134;5.578;2023-03-01T04:23:04;-1.30;99.90
23721;DHT22;42950;52.134;5.578;2023-03-01T04:25:38;-1.30;99.90
23721;DHT22;42950;52.134;5.578;2023-03-01T04:28:04;-1.40;99.90
23721;DHT22;42950;52.134;5.578;2023-03-01T04:30:30;-1.40;99.90
23721;DHT22;42950;52.134;5.578;2023-03-01T04:33:03;-1.30;99.90
23721;DHT22;42950;52.134;5.578;2023-03-01T04:35:29;-1.40;99.90
23721;DHT22;42950;52.134;5.578;2023-03-01T04:37:55;-1.50;99.90
23721;DHT22;42950;52.134;5.578;2023-03-01T04:40:21;-1.50;99.90
23721;DHT22;42950;52.134;5.578;2023-03-01T04:42:46;-1.50;99.90
23721;DHT22;42950;52.134;5.578;2023-03-01T04:45:12;-1.50;99.90
23721;DHT22;42950;52.134;5.578;2023-03-01T04:47:42;-1.50;99.90
23721;DHT22;42950;52.134;5.578;2023-03-01T04:50:11;-1.40;99.90
23721;DHT22;42950;52.134;5.578;2023-03-01T04:52:37;-1.40;99.90
23721;DHT22;42950;52.134;5.578;2023-03-01T04:55:04;-1.50;99.90
23721;DHT22;42950;52.134;5.578;2023-03-01T04:57:31;-1.50;99.90
23721;DHT22;42950;52.134;5.578;2023-03-01T04:59:57;-1.50;99.90
23721;DHT22;42950;52.134;5.578;2023-03-01T05:02:23;-1.50;99.90
23721;DHT22;42950;52.134;5.578;2023-03-01T05:04:49;-1.60;99.90
23721;DHT22;42950;52.134;5.578;2023-03-01T05:07:14;-1.60;99.90
23721;DHT22;42950;52.134;5.578;2023-03-01T05:09:47;-1.60;99.90
23721;DHT22;42950;52.134;5.578;2023-03-01T05:12:14;-1.60;99.90
23721;DHT22;42950;52.134;5.578;2023-03-01T05:14:41;-1.60;99.90
23721;DHT22;42950;52.134;5.578;2023-03-01T05:17:07;-1.60;99.90
23721;DHT22;42950;52.134;5.578;2023-03-01T05:19:33;-1.60;99.90
23721;DHT22;42950;52.134;5.578;2023-03-01T05:21:58;-1.70;99.90
23721;DHT22;42950;52.134;5.578;2023-03-01T05:24:28;-1.60;99.90
23721;DHT22;42950;52.134;5.578;2023-03-01T05:26:54;-1.60;99.90
23721;DHT22;42950;52.134;5.578;2023-03-01T05:29:21;-1.60;99.90
23721;DHT22;42950;52.134;5.578;2023-03-01T05:32:00;-1.70;99.90
23721;DHT22;42950;52.134;5.578;2023-03-01T05:34:28;-1.70;99.90
23721;DHT22;42950;52.134;5.578;2023-03-01T05:36:54;-1.70;99.90
23721;DHT22;42950;52.134;5.578;2023-03-01T05:39:21;-1.70;99.90
23721;DHT22;42950;52.134;5.578;2023-03-01T05:41:48;-1.70;99.90
23721;DHT22;42950;52.134;5.578;2023-03-01T05:44:17;-1.70;99.90
23721;DHT22;42950;52.134;5.578;2023-03-01T05:46:42;-1.80;99.90
23721;DHT22;42950;52.134;5.578;2023-03-01T05:49:08;-1.80;99.90
23721;DHT22;42950;52.134;5.578;2023-03-01T05:51:35;-1.80;99.90
23721;DHT22;42950;52.134;5.578;2023-03-01T05:54:01;-1.80;99.90
23721;DHT22;42950;52.134;5.578;2023-03-01T05:56:27;-1.80;99.90
23721;DHT22;42950;52.134;5.578;2023-03-01T05:58:53;-1.80;99.90
23721;DHT22;42950;52.134;5.578;2023-03-01T06:01:18;-1.90;99.90
23721;DHT22;42950;52.134;5.578;2023-03-01T06:03:44;-1.90;99.90
23721;DHT22;42950;52.134;5.578;2023-03-01T06:06:10;-1.90;99.90
23721;DHT22;42950;52.134;5.578;2023-03-01T06:08:35;-1.90;99.90
23721;DHT22;42950;52.134;5.578;2023-03-01T06:11:01;-1.90;99.90
23721;DHT22;42950;52.134;5.578;2023-03-01T06:13:27;-1.90;99.90
23721;DHT22;42950;52.134;5.578;2023-03-01T06:15:53;-1.90;99.90
23721;DHT22;42950;52.134;5.578;2023-03-01T06:18:19;-2.00;99.90
23721;DHT22;42950;52.134;5.578;2023-03-01T06:20:45;-2.00;99.90
23721;DHT22;42950;52.134;5.578;2023-03-01T06:23:11;-2.00;99.90
23721;DHT22;42950;52.134;5.578;2023-03-01T06:25:37;-2.00;99.90
23721;DHT22;42950;52.134;5.578;2023-03-01T06:28:03;-2.00;99.90
23721;DHT22;42950;52.134;5.578;2023-03-01T06:30:30;-2.10;99.90
23721;DHT22;42950;52.134;5.578;2023-03-01T06:32:56;-2.10;99.90
23721;DHT22;42950;52.134;5.578;2023-03-01T06:35:26;-2.10;99.90
23721;DHT22;42950;52.134;5.578;2023-03-01T06:37:56;-2.10;99.90
23721;DHT22;42950;52.134;5.578;2023-03-01T06:40:22;-2.10;99.90
23721;DHT22;42950;52.134;5.578;2023-03-01T06:42:49;-2.20;99.90
23721;DHT22;42950;52.134;5.578;2023-03-01T06:45:17;-2.20;99.90
23721;DHT22;42950;52.134;5.578;2023-03-01T06:47:43;-2.20;99.90
23721;DHT22;42950;52.134;5.578;2023-03-01T06:50:09;-2.20;99.90
23721;DHT22;42950;52.134;5.578;2023-03-01T06:52:35;-2.20;99.90
23721;DHT22;42950;52.134;5.578;2023-03-01T06:55:02;-2.20;99.90
23721;DHT22;42950;52.134;5.578;2023-03-01T06:57:29;-2.20;99.90
23721;DHT22;42950;52.134;5.578;2023-03-01T06:59:54;-2.20;99.90
23721;DHT22;42950;52.134;5.578;2023-03-01T07:02:20;-2.10;99.90
23721;DHT22;42950;52.134;5.578;2023-03-01T07:04:45;-2.00;99.90
23721;DHT22;42950;52.134;5.578;2023-03-01T07:07:11;-2.00;99.90
23721;DHT22;42950;52.134;5.578;2023-03-01T07:09:37;-2.00;99.90
23721;DHT22;42950;52.134;5.578;2023-03-01T07:12:03;-1.90;99.90
23721;DHT22;42950;52.134;5.578;2023-03-01T07:14:30;-1.90;99.90
23721;DHT22;42950;52.134;5.578;2023-03-01T07:16:55;-1.90;99.90
23721;DHT22;42950;52.134;5.578;2023-03-01T07:19:22;-1.90;99.90
23721;DHT22;42950;52.134;5.578;2023-03-01T07:21:48;-1.90;99.90
23721;DHT22;42950;52.134;5.578;2023-03-01T07:24:14;-1.80;99.90
23721;DHT22;42950;52.134;5.578;2023-03-01T07:26:41;-1.80;99.90
23721;DHT22;42950;52.134;5.578;2023-03-01T07:29:07;-1.80;99.90
23721;DHT22;42950;52.134;5.578;2023-03-01T07:31:34;-1.70;99.90
23721;DHT22;42950;52.134;5.578;2023-03-01T07:33:59;-1.70;99.90
23721;DHT22;42950;52.134;5.578;2023-03-01T07:36:26;-1.70;99.90
23721;DHT22;42950;52.134;5.578;2023-03-01T07:38:52;-1.70;99.90
23721;DHT22;42950;52.134;5.578;2023-03-01T07:41:18;-1.60;99.90
23721;DHT22;42950;52.134;5.578;2023-03-01T07:43:44;-1.60;99.90
23721;DHT22;42950;52.134;5.578;2023-03-01T07:46:10;-1.60;99.90
23721;DHT22;42950;52.134;5.578;2023-03-01T07:48:35;-1.60;99.90
23721;DHT22;42950;52.134;5.578;2023-03-01T07:51:02;-1.50;99.90
23721;DHT22;42950;52.134;5.578;2023-03-01T07:53:29;-1.40;99.90
23721;DHT22;42950;52.134;5.578;2023-03-01T07:56:09;-1.30;99.90
23721;DHT22;42950;52.134;5.578;2023-03-01T07:58:40;-1.30;99.90
23721;DHT22;42950;52.134;5.578;2023-03-01T08:01:09;-1.30;99.90
23721;DHT22;42950;52.134;5.578;2023-03-01T08:03:36;-1.20;99.90
23721;DHT22;42950;52.134;5.578;2023-03-01T08:06:03;-1.10;99.90
23721;DHT22;42950;52.134;5.578;2023-03-01T08:08:29;-1.00;99.90
23721;DHT22;42950;52.134;5.578;2023-03-01T08:10:59;-0.60;99.90
23721;DHT22;42950;52.134;5.578;2023-03-01T08:13:26;-0.30;99.90
23721;DHT22;42950;52.134;5.578;2023-03-01T08:15:51;0.00;99.90
23721;DHT22;42950;52.134;5.578;2023-03-01T08:18:18;0.30;99.90
23721;DHT22;42950;52.134;5.578;2023-03-01T08:20:44;0.40;99.90
23721;DHT22;42950;52.134;5.578;2023-03-01T08:23:10;0.60;99.90
23721;DHT22;42950;52.134;5.578;2023-03-01T08:25:35;0.60;99.90
23721;DHT22;42950;52.134;5.578;2023-03-01T08:28:01;0.70;99.90
23721;DHT22;42950;52.134;5.578;2023-03-01T08:30:27;0.70;99.90
23721;DHT22;42950;52.134;5.578;2023-03-01T08:32:52;0.80;99.90
23721;DHT22;42950;52.134;5.578;2023-03-01T08:35:19;0.80;99.90
23721;DHT22;42950;52.134;5.578;2023-03-01T08:37:45;0.90;99.90
23721;DHT22;42950;52.134;5.578;2023-03-01T08:40:11;1.00;99.90
23721;DHT22;42950;52.134;5.578;2023-03-01T08:42:39;1.10;99.90
23721;DHT22;42950;52.134;5.578;2023-03-01T08:45:05;1.20;99.90
23721;DHT22;42950;52.134;5.578;2023-03-01T08:47:31;1.30;99.90
23721;DHT22;42950;52.134;5.578;2023-03-01T08:49:59;1.30;99.90
23721;DHT22;42950;52.134;5.578;2023-03-01T08:52:24;1.40;99.90
23721;DHT22;42950;52.134;5.578;2023-03-01T08:54:51;1.60;99.90
23721;DHT22;42950;52.134;5.578;2023-03-01T08:57:16;1.70;99.90
23721;DHT22;42950;52.134;5.578;2023-03-01T08:59:42;1.80;99.90
23721;DHT22;42950;52.134;5.578;2023-03-01T09:02:15;2.00;99.90
23721;DHT22;42950;52.134;5.578;2023-03-01T09:04:41;2.10;99.90
23721;DHT22;42950;52.134;5.578;2023-03-01T09:07:08;2.20;99.90
23721;DHT22;42950;52.134;5.578;2023-03-01T09:09:34;2.40;99.90
23721;DHT22;42950;52.134;5.578;2023-03-01T09:11:59;2.50;99.90
23721;DHT22;42950;52.134;5.578;2023-03-01T09:14:25;2.60;99.90
23721;DHT22;42950;52.134;5.578;2023-03-01T09:16:50;2.70;99.90
23721;DHT22;42950;52.134;5.578;2023-03-01T09:19:16;2.80;99.90
23721;DHT22;42950;52.134;5.578;2023-03-01T09:21:42;3.00;99.90
23721;DHT22;42950;52.134;5.578;2023-03-01T09:24:18;3.10;99.90
23721;DHT22;42950;52.134;5.578;2023-03-01T09:26:44;3.30;99.90
23721;DHT22;42950;52.134;5.578;2023-03-01T09:29:12;3.50;99.90
23721;DHT22;42950;52.134;5.578;2023-03-01T09:31:37;3.70;99.90
23721;DHT22;42950;52.134;5.578;2023-03-01T09:34:03;3.80;99.90
23721;DHT22;42950;52.134;5.578;2023-03-01T09:36:29;3.90;99.90
23721;DHT22;42950;52.134;5.578;2023-03-01T09:38:54;4.10;99.90
23721;DHT22;42950;52.134;5.578;2023-03-01T09:44:43;4.40;99.90
23721;DHT22;42950;52.134;5.578;2023-03-01T09:47:21;4.50;99.90
23721;DHT22;42950;52.134;5.578;2023-03-01T09:50:14;4.60;99.90
23721;DHT22;42950;52.134;5.578;2023-03-01T09:52:50;4.70;99.90
23721;DHT22;42950;52.134;5.578;2023-03-01T09:55:40;4.90;99.90
23721;DHT22;42950;52.134;5.578;2023-03-01T10:01:00;5.00;99.90
23721;DHT22;42950;52.134;5.578;2023-03-01T10:03:39;5.10;99.90
23721;DHT22;42950;52.134;5.578;2023-03-01T10:06:13;5.40;99.90
23721;DHT22;42950;52.134;5.578;2023-03-01T10:08:58;5.60;99.90
23721;DHT22;42950;52.134;5.578;2023-03-01T10:11:30;5.70;99.90
23721;DHT22;42950;52.134;5.578;2023-03-01T10:16:54;5.80;99.90
23721;DHT22;42950;52.134;5.578;2023-03-01T10:22:03;6.10;99.90
23721;DHT22;42950;52.134;5.578;2023-03-01T10:24:32;6.20;99.90
23721;DHT22;42950;52.134;5.578;2023-03-01T10:27:05;6.40;99.90
23721;DHT22;42950;52.134;5.578;2023-03-01T10:29:39;6.50;99.90
23721;DHT22;42950;52.134;5.578;2023-03-01T10:32:06;6.50;99.90
23721;DHT22;42950;52.134;5.578;2023-03-01T10:34:34;6.60;99.90
23721;DHT22;42950;52.134;5.578;2023-03-01T10:37:20;6.70;99.90
23721;DHT22;42950;52.134;5.578;2023-03-01T10:40:00;6.90;99.90
23721;DHT22;42950;52.134;5.578;2023-03-01T10:42:29;6.90;99.90
23721;DHT22;42950;52.134;5.578;2023-03-01T10:44:56;7.10;99.90
23721;DHT22;42950;52.134;5.578;2023-03-01T10:47:25;7.00;99.90
23721;DHT22;42950;52.134;5.578;2023-03-01T10:52:21;7.00;99.90
23721;DHT22;42950;52.134;5.578;2023-03-01T10:54:59;7.00;99.90
23721;DHT22;42950;52.134;5.578;2023-03-01T10:57:44;7.10;99.90
23721;DHT22;42950;52.134;5.578;2023-03-01T11:05:25;7.30;99.90
23721;DHT22;42950;52.134;5.578;2023-03-01T11:07:55;7.40;99.90
23721;DHT22;42950;52.134;5.578;2023-03-01T11:10:34;7.50;99.90
23721;DHT22;42950;52.134;5.578;2023-03-01T11:13:18;7.60;99.90
23721;DHT22;42950;52.134;5.578;2023-03-01T11:16:02;7.80;99.90
23721;DHT22;42950;52.134;5.578;2023-03-01T11:18:30;7.90;99.90
23721;DHT22;42950;52.134;5.578;2023-03-01T11:20:58;7.90;99.90
23721;DHT22;42950;52.134;5.578;2023-03-01T11:23:25;7.80;99.90
23721;DHT22;42950;52.134;5.578;2023-03-01T11:25:57;7.70;99.90
23721;DHT22;42950;52.134;5.578;2023-03-01T11:28:26;7.80;99.90
23721;DHT22;42950;52.134;5.578;2023-03-01T11:31:03;7.90;99.90
23721;DHT22;42950;52.134;5.578;2023-03-01T11:38:34;7.50;99.90
23721;DHT22;42950;52.134;5.578;2023-03-01T11:41:26;7.50;99.90
23721;DHT22;42950;52.134;5.578;2023-03-01T11:44:10;7.60;99.90
23721;DHT22;42950;52.134;5.578;2023-03-01T11:49:46;8.00;99.90
23721;DHT22;42950;52.134;5.578;2023-03-01T11:58:00;8.30;99.90
23721;DHT22;42950;52.134;5.578;2023-03-01T12:03:33;8.40;99.90
23721;DHT22;42950;52.134;5.578;2023-03-01T12:06:24;8.50;99.90
23721;DHT22;42950;52.134;5.578;2023-03-01T12:09:04;8.10;99.90
23721;DHT22;42950;52.134;5.578;2023-03-01T12:12:08;8.20;99.90
23721;DHT22;42950;52.134;5.578;2023-03-01T12:20:30;8.70;99.90
23721;DHT22;42950;52.134;5.578;2023-03-01T12:23:13;8.80;99.90
23721;DHT22;42950;52.134;5.578;2023-03-01T12:25:55;8.90;99.90
23721;DHT22;42950;52.134;5.578;2023-03-01T12:37:23;9.20;99.90
23721;DHT22;42950;52.134;5.578;2023-03-01T12:48:13;8.80;99.90
23721;DHT22;42950;52.134;5.578;2023-03-01T12:50:46;8.40;99.90
23721;DHT22;42950;52.134;5.578;2023-03-01T12:53:41;8.60;99.90
23721;DHT22;42950;52.134;5.578;2023-03-01T12:56:12;9.00;99.90
23721;DHT22;42950;52.134;5.578;2023-03-01T12:58:54;9.20;99.90
23721;DHT22;42950;52.134;5.578;2023-03-01T13:01:53;9.20;99.90
23721;DHT22;42950;52.134;5.578;2023-03-01T13:04:27;9.30;99.90
23721;DHT22;42950;52.134;5.578;2023-03-01T13:12:44;9.60;99.90
23721;DHT22;42950;52.134;5.578;2023-03-01T13:17:55;9.50;99.90
23721;DHT22;42950;52.134;5.578;2023-03-01T13:26:06;9.60;99.90
23721;DHT22;42950;52.134;5.578;2023-03-01T13:34:01;9.70;99.90
23721;DHT22;42950;52.134;5.578;2023-03-01T13:39:28;9.60;99.90
23721;DHT22;42950;52.134;5.578;2023-03-01T13:41:57;9.80;99.90
23721;DHT22;42950;52.134;5.578;2023-03-01T13:47:36;9.90;99.90
23721;DHT22;42950;52.134;5.578;2023-03-01T13:49:59;9.70;99.90
23721;DHT22;42950;52.134;5.578;2023-03-01T13:52:40;9.20;99.90
23721;DHT22;42950;52.134;5.578;2023-03-01T13:55:17;9.30;99.90
23721;DHT22;42950;52.134;5.578;2023-03-01T13:57:47;9.40;99.90
23721;DHT22;42950;52.134;5.578;2023-03-01T14:00:35;9.60;99.90
23721;DHT22;42950;52.134;5.578;2023-03-01T14:03:21;9.60;99.90
23721;DHT22;42950;52.134;5.578;2023-03-01T14:08:33;9.60;99.90
23721;DHT22;42950;52.134;5.578;2023-03-01T14:19:19;10.00;99.90
23721;DHT22;42950;52.134;5.578;2023-03-01T14:21:47;10.00;99.90
23721;DHT22;42950;52.134;5.578;2023-03-01T14:24:21;9.80;99.90
23721;DHT22;42950;52.134;5.578;2023-03-01T14:26:50;9.80;99.90
23721;DHT22;42950;52.134;5.578;2023-03-01T14:29:36;9.90;99.90
23721;DHT22;42950;52.134;5.578;2023-03-01T14:32:30;9.90;99.90
23721;DHT22;42950;52.134;5.578;2023-03-01T14:34:57;9.90;99.90
23721;DHT22;42950;52.134;5.578;2023-03-01T14:37:32;9.90;99.90
23721;DHT22;42950;52.134;5.578;2023-03-01T14:39:59;9.70;99.90
23721;DHT22;42950;52.134;5.578;2023-03-01T14:42:33;9.80;99.90
23721;DHT22;42950;52.134;5.578;2023-03-01T14:45:00;9.80;99.90
23721;DHT22;42950;52.134;5.578;2023-03-01T14:47:34;9.90;99.90
23721;DHT22;42950;52.134;5.578;2023-03-01T14:52:37;9.70;99.90
23721;DHT22;42950;52.134;5.578;2023-03-01T14:55:15;9.70;99.90
23721;DHT22;42950;52.134;5.578;2023-03-01T14:57:44;9.80;99.90
23721;DHT22;42950;52.134;5.578;2023-03-01T15:00:20;9.80;99.90
23721;DHT22;42950;52.134;5.578;2023-03-01T15:02:49;9.90;99.90
23721;DHT22;42950;52.134;5.578;2023-03-01T15:05:39;9.80;99.90
23721;DHT22;42950;52.134;5.578;2023-03-01T15:08:05;9.60;99.90
23721;DHT22;42950;52.134;5.578;2023-03-01T15:10:36;9.50;99.90
23721;DHT22;42950;52.134;5.578;2023-03-01T15:13:21;9.20;99.90
23721;DHT22;42950;52.134;5.578;2023-03-01T15:15:47;9.30;99.90
23721;DHT22;42950;52.134;5.578;2023-03-01T15:18:16;9.40;99.90
23721;DHT22;42950;52.134;5.578;2023-03-01T15:20:43;9.40;99.90
23721;DHT22;42950;52.134;5.578;2023-03-01T15:23:25;9.30;99.90
23721;DHT22;42950;52.134;5.578;2023-03-01T15:25:52;9.30;99.90
23721;DHT22;42950;52.134;5.578;2023-03-01T15:28:26;9.40;99.90
23721;DHT22;42950;52.134;5.578;2023-03-01T15:30:57;9.50;99.90
23721;DHT22;42950;52.134;5.578;2023-03-01T15:33:30;9.30;99.90
23721;DHT22;42950;52.134;5.578;2023-03-01T15:35:58;9.20;99.90
23721;DHT22;42950;52.134;5.578;2023-03-01T15:38:32;9.40;99.90
23721;DHT22;42950;52.134;5.578;2023-03-01T15:41:00;9.50;99.90
23721;DHT22;42950;52.134;5.578;2023-03-01T15:43:52;9.50;99.90
23721;DHT22;42950;52.134;5.578;2023-03-01T15:48:55;9.40;99.90
23721;DHT22;42950;52.134;5.578;2023-03-01T15:51:48;9.20;99.90
23721;DHT22;42950;52.134;5.578;2023-03-01T15:54:19;9.00;99.90
23721;DHT22;42950;52.134;5.578;2023-03-01T15:56:45;8.80;99.90
23721;DHT22;42950;52.134;5.578;2023-03-01T15:59:13;8.70;99.90
23721;DHT22;42950;52.134;5.578;2023-03-01T16:01:43;8.70;99.90
23721;DHT22;42950;52.134;5.578;2023-03-01T16:04:10;8.50;99.90
23721;DHT22;42950;52.134;5.578;2023-03-01T16:06:39;8.50;99.90
23721;DHT22;42950;52.134;5.578;2023-03-01T16:09:05;8.40;99.90
23721;DHT22;42950;52.134;5.578;2023-03-01T16:11:30;8.60;99.90
23721;DHT22;42950;52.134;5.578;2023-03-01T16:13:57;8.60;99.90
23721;DHT22;42950;52.134;5.578;2023-03-01T16:16:23;8.50;99.90
23721;DHT22;42950;52.134;5.578;2023-03-01T16:18:48;8.50;99.90
23721;DHT22;42950;52.134;5.578;2023-03-01T16:21:19;8.60;99.90
23721;DHT22;42950;52.134;5.578;2023-03-01T16:23:45;8.50;99.90
23721;DHT22;42950;52.134;5.578;2023-03-01T16:26:12;8.40;99.90
23721;DHT22;42950;52.134;5.578;2023-03-01T16:28:41;8.30;99.90
23721;DHT22;42950;52.134;5.578;2023-03-01T16:31:07;8.20;99.90
23721;DHT22;42950;52.134;5.578;2023-03-01T16:33:33;8.20;99.90
23721;DHT22;42950;52.134;5.578;2023-03-01T16:36:00;8.10;99.90
23721;DHT22;42950;52.134;5.578;2023-03-01T16:38:27;8.00;99.90
23721;DHT22;42950;52.134;5.578;2023-03-01T16:40:53;7.80;99.90
23721;DHT22;42950;52.134;5.578;2023-03-01T16:43:19;7.80;99.90
23721;DHT22;42950;52.134;5.578;2023-03-01T16:45:44;7.70;99.90
23721;DHT22;42950;52.134;5.578;2023-03-01T16:48:10;7.60;99.90
23721;DHT22;42950;52.134;5.578;2023-03-01T16:50:36;7.60;99.90
23721;DHT22;42950;52.134;5.578;2023-03-01T16:53:02;7.50;99.90
23721;DHT22;42950;52.134;5.578;2023-03-01T16:55:28;7.40;99.90
23721;DHT22;42950;52.134;5.578;2023-03-01T16:57:53;7.40;99.90
23721;DHT22;42950;52.134;5.578;2023-03-01T17:00:19;7.30;99.90
23721;DHT22;42950;52.134;5.578;2023-03-01T17:02:46;7.30;99.90
23721;DHT22;42950;52.134;5.578;2023-03-01T17:05:12;7.20;99.90
23721;DHT22;42950;52.134;5.578;2023-03-01T17:07:38;7.20;99.90
23721;DHT22;42950;52.134;5.578;2023-03-01T17:10:05;7.10;99.90
23721;DHT22;42950;52.134;5.578;2023-03-01T17:12:31;7.00;99.90
23721;DHT22;42950;52.134;5.578;2023-03-01T17:14:58;6.90;99.90
23721;DHT22;42950;52.134;5.578;2023-03-01T17:17:23;6.90;99.90
23721;DHT22;42950;52.134;5.578;2023-03-01T17:19:50;6.80;99.90
23721;DHT22;42950;52.134;5.578;2023-03-01T17:22:15;6.80;99.90
23721;DHT22;42950;52.134;5.578;2023-03-01T17:24:43;6.80;99.90
23721;DHT22;42950;52.134;5.578;2023-03-01T17:27:09;6.70;99.90
23721;DHT22;42950;52.134;5.578;2023-03-01T17:29:36;6.60;99.90
23721;DHT22;42950;52.134;5.578;2023-03-01T17:32:03;6.50;99.90
23721;DHT22;42950;52.134;5.578;2023-03-01T17:34:30;6.50;99.90
23721;DHT22;42950;52.134;5.578;2023-03-01T17:36:56;6.40;99.90
23721;DHT22;42950;52.134;5.578;2023-03-01T17:39:22;6.40;99.90
23721;DHT22;42950;52.134;5.578;2023-03-01T17:41:53;6.30;99.90
23721;DHT22;42950;52.134;5.578;2023-03-01T17:44:19;6.20;99.90